Charlotte Roush — WDE5112 — position and weather

sailwx.info

Track history (hours):
 
Tides and Currents Weather Stations Pressure Air Temp Water Temp Dewpoint Dewpoint Depression Visibility Wind Speed Wind Dir Waves Ship Positions

Charlotte Roush

Owner: AEP River Operations LLC, Chesterfield, MO. More information available from US FCC via Universal Licensing System and Coast Guard Vessel Documentation Center.

Last reported at 2014-Nov-19 09:32 UTC. Time now 2014-Nov-24 01:27 UTC.
Position N 29°57' W 090°09'.

Length 35 m; draft 3 m.

Type: Towing. MMSI: 367362230.

Date/timePositionNaut miles runAvg speedWind from/ knotsBaromVisibWave heightAir tempDewpointWater temp
2014-Nov-19 09:32N 29°57' W 090°09'4 3.7
2014-Nov-19 08:30N 29°55' W 090°06'4 3.6
2014-Nov-19 07:20N 29°57' W 090°01'1 0.7
2014-Nov-19 06:33N 29°57' W 090°01'0 0.1
2014-Nov-19 05:26N 29°57' W 090°01'0 0.1
2014-Nov-19 04:33N 29°57' W 090°01'0 0.0
2014-Nov-17 18:08N 29°57' W 090°01'2 2.5
2014-Nov-17 17:20N 29°57' W 090°04'  
2014-Nov-15 13:17N 29°57' W 090°01'  
2014-Nov-11 13:28N 30°01' W 090°50'2 1.7
2014-Nov-11 12:33N 29°59' W 090°49'0 0.1
2014-Nov-11 11:33N 29°59' W 090°49'0 0.0
2014-Nov-11 10:30N 29°59' W 090°49'0 0.0
2014-Nov-11 08:31N 29°59' W 090°49'0 0.0
2014-Nov-11 07:33N 29°59' W 090°49'1 1.3
2014-Nov-11 06:33N 29°60' W 090°48'5 3.8
2014-Nov-11 05:15N 30°01' W 090°43'3 4.1
2014-Nov-11 04:33N 30°03' W 090°40'4 3.4
2014-Nov-11 03:29N 30°03' W 090°36'26 3.1
2014-Nov-10 19:08N 29°55' W 090°08'3 4.1
2014-Nov-10 18:25N 29°55' W 090°04'3 3.0
2014-Nov-10 17:29N 29°57' W 090°02'1 1.3
2014-Nov-10 16:32N 29°57' W 090°01'0 0.1
2014-Nov-10 15:30N 29°57' W 090°01'0 0.0
2014-Nov-10 14:31N 29°57' W 090°01'0 0.0
2014-Nov-10 13:33N 29°57' W 090°01'0 0.2
2014-Nov-10 12:30N 29°57' W 090°01'5 1.1
2014-Nov-10 08:07N 29°55' W 089°56'10 0.5
2014-Nov-09 11:07N 29°55' W 090°08'  
Track history (hours):
 
Tides and Currents Weather Stations Pressure Air Temp Water Temp Dewpoint Dewpoint Depression Visibility Wind Speed Wind Dir Waves Ship Positions

Charlotte Roush

Owner: AEP River Operations LLC, Chesterfield, MO. More information available from US FCC via Universal Licensing System and Coast Guard Vessel Documentation Center.

Last reported at 2014-Nov-19 09:32 UTC. Time now 2014-Nov-24 01:27 UTC.
Position N 29°57' W 090°09'.

Length 35 m; draft 3 m.

Type: Towing. MMSI: 367362230.

Date/timePositionNaut miles runAvg speedWind from/ knotsBaromVisibWave heightAir tempDewpointWater temp
2014-Nov-19 09:32N 29°57' W 090°09'4 3.7
2014-Nov-19 08:30N 29°55' W 090°06'4 3.6
2014-Nov-19 07:20N 29°57' W 090°01'1 0.7
2014-Nov-19 06:33N 29°57' W 090°01'0 0.1
2014-Nov-19 05:26N 29°57' W 090°01'0 0.1
2014-Nov-19 04:33N 29°57' W 090°01'0 0.0
2014-Nov-17 18:08N 29°57' W 090°01'2 2.5
2014-Nov-17 17:20N 29°57' W 090°04'  
2014-Nov-15 13:17N 29°57' W 090°01'  
2014-Nov-11 13:28N 30°01' W 090°50'2 1.7
2014-Nov-11 12:33N 29°59' W 090°49'0 0.1
2014-Nov-11 11:33N 29°59' W 090°49'0 0.0
2014-Nov-11 10:30N 29°59' W 090°49'0 0.0
2014-Nov-11 08:31N 29°59' W 090°49'0 0.0
2014-Nov-11 07:33N 29°59' W 090°49'1 1.3
2014-Nov-11 06:33N 29°60' W 090°48'5 3.8
2014-Nov-11 05:15N 30°01' W 090°43'3 4.1
2014-Nov-11 04:33N 30°03' W 090°40'4 3.4
2014-Nov-11 03:29N 30°03' W 090°36'26 3.1
2014-Nov-10 19:08N 29°55' W 090°08'3 4.1
2014-Nov-10 18:25N 29°55' W 090°04'3 3.0
2014-Nov-10 17:29N 29°57' W 090°02'1 1.3
2014-Nov-10 16:32N 29°57' W 090°01'0 0.1
2014-Nov-10 15:30N 29°57' W 090°01'0 0.0
2014-Nov-10 14:31N 29°57' W 090°01'0 0.0
2014-Nov-10 13:33N 29°57' W 090°01'0 0.2
2014-Nov-10 12:30N 29°57' W 090°01'5 1.1
2014-Nov-10 08:07N 29°55' W 089°56'10 0.5
2014-Nov-09 11:07N 29°55' W 090°08'  

Dump ship's entire track history